sensor_id;sensor_type;location;lat;lon;timestamp;P1;durP1;ratioP1;P2;durP2;ratioP2
35225;SDS011;21813;49.686;21.766;2023-03-01T00:01:51;273.67;;;115.95;;
35225;SDS011;21813;49.686;21.766;2023-03-01T00:04:16;267.90;;;115.90;;
35225;SDS011;21813;49.686;21.766;2023-03-01T00:06:42;296.27;;;125.05;;
35225;SDS011;21813;49.686;21.766;2023-03-01T00:09:11;311.60;;;130.05;;
35225;SDS011;21813;49.686;21.766;2023-03-01T00:11:38;296.50;;;126.50;;
35225;SDS011;21813;49.686;21.766;2023-03-01T00:14:04;302.25;;;127.90;;
35225;SDS011;21813;49.686;21.766;2023-03-01T00:16:31;295.08;;;126.32;;
35225;SDS011;21813;49.686;21.766;2023-03-01T00:19:03;298.73;;;126.75;;
35225;SDS011;21813;49.686;21.766;2023-03-01T00:21:30;305.15;;;127.75;;
35225;SDS011;21813;49.686;21.766;2023-03-01T00:23:55;290.42;;;123.70;;
35225;SDS011;21813;49.686;21.766;2023-03-01T00:43:48;292.50;;;120.43;;
35225;SDS011;21813;49.686;21.766;2023-03-01T00:46:16;297.60;;;116.30;;
35225;SDS011;21813;49.686;21.766;2023-03-01T00:48:43;323.98;;;127.38;;
35225;SDS011;21813;49.686;21.766;2023-03-01T00:51:11;300.75;;;114.95;;
35225;SDS011;21813;49.686;21.766;2023-03-01T00:53:39;235.00;;;95.60;;
35225;SDS011;21813;49.686;21.766;2023-03-01T00:56:06;240.10;;;99.10;;
35225;SDS011;21813;49.686;21.766;2023-03-01T00:58:33;218.38;;;92.32;;
35225;SDS011;21813;49.686;21.766;2023-03-01T01:00:59;168.48;;;76.82;;
35225;SDS011;21813;49.686;21.766;2023-03-01T01:03:26;166.18;;;68.32;;
35225;SDS011;21813;49.686;21.766;2023-03-01T01:05:52;146.82;;;64.78;;
35225;SDS011;21813;49.686;21.766;2023-03-01T01:08:18;153.65;;;66.13;;
35225;SDS011;21813;49.686;21.766;2023-03-01T01:10:45;145.68;;;62.20;;
35225;SDS011;21813;49.686;21.766;2023-03-01T01:13:13;157.98;;;67.93;;
35225;SDS011;21813;49.686;21.766;2023-03-01T01:15:40;161.90;;;70.10;;
35225;SDS011;21813;49.686;21.766;2023-03-01T01:18:06;156.98;;;67.82;;
35225;SDS011;21813;49.686;21.766;2023-03-01T01:20:32;195.13;;;78.68;;
35225;SDS011;21813;49.686;21.766;2023-03-01T01:23:00;189.00;;;81.00;;
35225;SDS011;21813;49.686;21.766;2023-03-01T01:25:25;162.20;;;68.95;;
35225;SDS011;21813;49.686;21.766;2023-03-01T01:27:51;179.50;;;73.75;;
35225;SDS011;21813;49.686;21.766;2023-03-01T01:30:17;156.35;;;65.95;;
35225;SDS011;21813;49.686;21.766;2023-03-01T01:32:43;174.93;;;72.22;;
35225;SDS011;21813;49.686;21.766;2023-03-01T01:35:08;160.43;;;67.50;;
35225;SDS011;21813;49.686;21.766;2023-03-01T01:37:35;154.38;;;64.82;;
35225;SDS011;21813;49.686;21.766;2023-03-01T01:40:01;150.93;;;64.70;;
35225;SDS011;21813;49.686;21.766;2023-03-01T01:42:29;139.00;;;61.80;;
35225;SDS011;21813;49.686;21.766;2023-03-01T01:48:02;176.82;;;72.03;;
35225;SDS011;21813;49.686;21.766;2023-03-01T01:50:32;176.63;;;70.85;;
35225;SDS011;21813;49.686;21.766;2023-03-01T01:53:08;163.00;;;66.15;;
35225;SDS011;21813;49.686;21.766;2023-03-01T01:55:39;149.40;;;66.30;;
35225;SDS011;21813;49.686;21.766;2023-03-01T01:58:10;155.27;;;64.30;;
35225;SDS011;21813;49.686;21.766;2023-03-01T02:00:39;148.98;;;63.67;;
35225;SDS011;21813;49.686;21.766;2023-03-01T02:03:16;141.13;;;60.13;;
35225;SDS011;21813;49.686;21.766;2023-03-01T02:05:57;139.85;;;59.97;;
35225;SDS011;21813;49.686;21.766;2023-03-01T02:08:32;134.73;;;58.78;;
35225;SDS011;21813;49.686;21.766;2023-03-01T02:11:02;145.65;;;60.67;;
35225;SDS011;21813;49.686;21.766;2023-03-01T02:17:42;155.35;;;63.88;;
35225;SDS011;21813;49.686;21.766;2023-03-01T02:27:37;139.80;;;58.13;;
35225;SDS011;21813;49.686;21.766;2023-03-01T02:53:15;178.10;;;68.55;;
35225;SDS011;21813;49.686;21.766;2023-03-01T02:55:47;191.05;;;74.40;;
35225;SDS011;21813;49.686;21.766;2023-03-01T02:58:13;183.63;;;73.88;;
35225;SDS011;21813;49.686;21.766;2023-03-01T03:00:40;185.60;;;72.53;;
35225;SDS011;21813;49.686;21.766;2023-03-01T03:03:15;178.88;;;69.22;;
35225;SDS011;21813;49.686;21.766;2023-03-01T03:05:45;166.07;;;69.18;;
35225;SDS011;21813;49.686;21.766;2023-03-01T03:08:12;170.18;;;67.30;;
35225;SDS011;21813;49.686;21.766;2023-03-01T03:10:40;160.93;;;65.65;;
35225;SDS011;21813;49.686;21.766;2023-03-01T03:13:09;155.43;;;65.68;;
35225;SDS011;21813;49.686;21.766;2023-03-01T03:15:37;169.98;;;67.30;;
35225;SDS011;21813;49.686;21.766;2023-03-01T03:25:39;157.07;;;65.82;;
35225;SDS011;21813;49.686;21.766;2023-03-01T03:28:05;162.70;;;69.25;;
35225;SDS011;21813;49.686;21.766;2023-03-01T03:30:35;192.68;;;71.93;;
35225;SDS011;21813;49.686;21.766;2023-03-01T03:33:05;185.10;;;77.82;;
35225;SDS011;21813;49.686;21.766;2023-03-01T03:35:33;180.57;;;71.95;;
35225;SDS011;21813;49.686;21.766;2023-03-01T03:38:08;179.15;;;72.97;;
35225;SDS011;21813;49.686;21.766;2023-03-01T03:40:50;188.80;;;74.90;;
35225;SDS011;21813;49.686;21.766;2023-03-01T03:43:30;210.13;;;82.10;;
35225;SDS011;21813;49.686;21.766;2023-03-01T03:45:58;207.43;;;81.25;;
35225;SDS011;21813;49.686;21.766;2023-03-01T03:48:25;186.82;;;76.72;;
35225;SDS011;21813;49.686;21.766;2023-03-01T03:50:54;185.35;;;72.53;;
35225;SDS011;21813;49.686;21.766;2023-03-01T03:53:22;181.13;;;72.95;;
35225;SDS011;21813;49.686;21.766;2023-03-01T03:55:49;193.50;;;76.97;;
35225;SDS011;21813;49.686;21.766;2023-03-01T03:58:17;188.23;;;77.57;;
35225;SDS011;21813;49.686;21.766;2023-03-01T04:00:45;189.88;;;80.35;;
35225;SDS011;21813;49.686;21.766;2023-03-01T04:03:13;191.93;;;80.15;;
35225;SDS011;21813;49.686;21.766;2023-03-01T04:05:40;174.10;;;77.38;;
35225;SDS011;21813;49.686;21.766;2023-03-01T04:08:08;175.90;;;72.65;;
35225;SDS011;21813;49.686;21.766;2023-03-01T04:10:35;166.45;;;73.20;;
35225;SDS011;21813;49.686;21.766;2023-03-01T04:13:03;170.98;;;74.28;;
35225;SDS011;21813;49.686;21.766;2023-03-01T04:15:30;175.18;;;74.50;;
35225;SDS011;21813;49.686;21.766;2023-03-01T04:17:59;151.57;;;67.90;;
35225;SDS011;21813;49.686;21.766;2023-03-01T04:20:26;146.05;;;66.18;;
35225;SDS011;21813;49.686;21.766;2023-03-01T04:22:58;138.00;;;65.43;;
35225;SDS011;21813;49.686;21.766;2023-03-01T04:25:37;115.15;;;51.35;;
35225;SDS011;21813;49.686;21.766;2023-03-01T04:28:07;164.93;;;66.07;;
35225;SDS011;21813;49.686;21.766;2023-03-01T04:30:34;165.85;;;72.10;;
35225;SDS011;21813;49.686;21.766;2023-03-01T04:33:02;172.00;;;73.53;;
35225;SDS011;21813;49.686;21.766;2023-03-01T04:35:29;161.75;;;69.50;;
35225;SDS011;21813;49.686;21.766;2023-03-01T04:37:56;143.23;;;63.88;;
35225;SDS011;21813;49.686;21.766;2023-03-01T04:40:21;147.32;;;64.03;;
35225;SDS011;21813;49.686;21.766;2023-03-01T04:42:47;145.98;;;62.92;;
35225;SDS011;21813;49.686;21.766;2023-03-01T04:45:13;167.57;;;66.15;;
35225;SDS011;21813;49.686;21.766;2023-03-01T04:47:42;163.52;;;65.28;;
35225;SDS011;21813;49.686;21.766;2023-03-01T04:50:13;150.40;;;64.07;;
35225;SDS011;21813;49.686;21.766;2023-03-01T04:52:41;154.20;;;65.63;;
35225;SDS011;21813;49.686;21.766;2023-03-01T04:55:07;162.18;;;69.20;;
35225;SDS011;21813;49.686;21.766;2023-03-01T04:57:34;149.75;;;68.57;;
35225;SDS011;21813;49.686;21.766;2023-03-01T05:00:00;181.15;;;72.07;;
35225;SDS011;21813;49.686;21.766;2023-03-01T05:02:26;161.50;;;69.05;;
35225;SDS011;21813;49.686;21.766;2023-03-01T05:04:51;161.95;;;66.07;;
35225;SDS011;21813;49.686;21.766;2023-03-01T05:07:17;166.85;;;67.55;;
35225;SDS011;21813;49.686;21.766;2023-03-01T05:09:46;178.48;;;74.30;;
35225;SDS011;21813;49.686;21.766;2023-03-01T05:12:14;207.52;;;80.13;;
35225;SDS011;21813;49.686;21.766;2023-03-01T05:14:40;208.95;;;79.35;;
35225;SDS011;21813;49.686;21.766;2023-03-01T05:17:08;204.50;;;79.78;;
35225;SDS011;21813;49.686;21.766;2023-03-01T05:19:33;221.18;;;84.38;;
35225;SDS011;21813;49.686;21.766;2023-03-01T05:22:00;198.57;;;81.22;;
35225;SDS011;21813;49.686;21.766;2023-03-01T05:27:00;209.18;;;82.20;;
35225;SDS011;21813;49.686;21.766;2023-03-01T05:29:27;237.30;;;98.60;;
35225;SDS011;21813;49.686;21.766;2023-03-01T05:31:58;248.98;;;103.10;;
35225;SDS011;21813;49.686;21.766;2023-03-01T05:34:33;232.65;;;93.78;;
35225;SDS011;21813;49.686;21.766;2023-03-01T05:37:02;226.68;;;95.53;;
35225;SDS011;21813;49.686;21.766;2023-03-01T05:39:28;248.65;;;99.00;;
35225;SDS011;21813;49.686;21.766;2023-03-01T05:41:57;259.70;;;100.68;;
35225;SDS011;21813;49.686;21.766;2023-03-01T05:44:24;301.58;;;109.38;;
35225;SDS011;21813;49.686;21.766;2023-03-01T05:46:52;266.27;;;108.43;;
35225;SDS011;21813;49.686;21.766;2023-03-01T05:49:18;279.75;;;108.22;;
35225;SDS011;21813;49.686;21.766;2023-03-01T05:51:47;257.00;;;96.22;;
35225;SDS011;21813;49.686;21.766;2023-03-01T05:54:14;240.02;;;96.80;;
35225;SDS011;21813;49.686;21.766;2023-03-01T05:56:41;236.85;;;95.10;;
35225;SDS011;21813;49.686;21.766;2023-03-01T05:59:07;233.48;;;94.93;;
35225;SDS011;21813;49.686;21.766;2023-03-01T06:01:33;235.52;;;88.93;;
35225;SDS011;21813;49.686;21.766;2023-03-01T06:04:00;219.38;;;89.47;;
35225;SDS011;21813;49.686;21.766;2023-03-01T06:06:27;222.30;;;93.07;;
35225;SDS011;21813;49.686;21.766;2023-03-01T06:08:53;240.55;;;93.10;;
35225;SDS011;21813;49.686;21.766;2023-03-01T06:11:20;210.98;;;90.30;;
35225;SDS011;21813;49.686;21.766;2023-03-01T06:13:47;216.95;;;94.38;;
35225;SDS011;21813;49.686;21.766;2023-03-01T06:16:13;207.70;;;88.38;;
35225;SDS011;21813;49.686;21.766;2023-03-01T06:18:40;187.07;;;80.10;;
35225;SDS011;21813;49.686;21.766;2023-03-01T06:21:07;208.25;;;82.97;;
35225;SDS011;21813;49.686;21.766;2023-03-01T06:23:33;190.18;;;84.35;;
35225;SDS011;21813;49.686;21.766;2023-03-01T06:26:04;217.63;;;85.47;;
35225;SDS011;21813;49.686;21.766;2023-03-01T06:28:34;198.67;;;82.43;;
35225;SDS011;21813;49.686;21.766;2023-03-01T06:31:18;175.50;;;72.85;;
35225;SDS011;21813;49.686;21.766;2023-03-01T06:33:43;172.02;;;75.38;;
35225;SDS011;21813;49.686;21.766;2023-03-01T06:36:18;164.05;;;75.22;;
35225;SDS011;21813;49.686;21.766;2023-03-01T06:38:46;188.35;;;79.05;;
35225;SDS011;21813;49.686;21.766;2023-03-01T06:41:15;178.10;;;79.35;;
35225;SDS011;21813;49.686;21.766;2023-03-01T06:43:40;188.48;;;81.35;;
35225;SDS011;21813;49.686;21.766;2023-03-01T06:46:06;180.68;;;81.20;;
35225;SDS011;21813;49.686;21.766;2023-03-01T06:48:32;184.45;;;81.57;;
35225;SDS011;21813;49.686;21.766;2023-03-01T06:51:00;199.32;;;87.57;;
35225;SDS011;21813;49.686;21.766;2023-03-01T06:53:26;182.75;;;82.28;;
35225;SDS011;21813;49.686;21.766;2023-03-01T06:55:56;188.55;;;78.93;;
35225;SDS011;21813;49.686;21.766;2023-03-01T06:58:22;172.00;;;74.25;;
35225;SDS011;21813;49.686;21.766;2023-03-01T07:00:49;161.38;;;74.65;;
35225;SDS011;21813;49.686;21.766;2023-03-01T07:03:14;159.30;;;72.13;;
35225;SDS011;21813;49.686;21.766;2023-03-01T07:05:40;145.95;;;68.85;;
35225;SDS011;21813;49.686;21.766;2023-03-01T07:08:06;172.95;;;74.43;;
35225;SDS011;21813;49.686;21.766;2023-03-01T07:10:37;166.82;;;73.57;;
35225;SDS011;21813;49.686;21.766;2023-03-01T07:13:04;138.60;;;65.35;;
35225;SDS011;21813;49.686;21.766;2023-03-01T07:15:32;141.18;;;67.13;;
35225;SDS011;21813;49.686;21.766;2023-03-01T07:17:58;134.60;;;62.88;;
35225;SDS011;21813;49.686;21.766;2023-03-01T07:20:24;127.90;;;61.00;;
35225;SDS011;21813;49.686;21.766;2023-03-01T07:22:51;128.02;;;63.03;;
35225;SDS011;21813;49.686;21.766;2023-03-01T07:25:17;132.68;;;62.63;;
35225;SDS011;21813;49.686;21.766;2023-03-01T07:27:43;121.25;;;60.38;;
35225;SDS011;21813;49.686;21.766;2023-03-01T07:30:09;118.40;;;55.70;;
35225;SDS011;21813;49.686;21.766;2023-03-01T07:32:35;105.72;;;48.13;;
35225;SDS011;21813;49.686;21.766;2023-03-01T07:35:01;88.85;;;46.55;;
35225;SDS011;21813;49.686;21.766;2023-03-01T07:37:27;100.35;;;50.17;;
35225;SDS011;21813;49.686;21.766;2023-03-01T07:39:53;104.63;;;51.35;;
35225;SDS011;21813;49.686;21.766;2023-03-01T07:42:18;116.05;;;60.38;;
35225;SDS011;21813;49.686;21.766;2023-03-01T07:44:51;111.18;;;58.15;;
35225;SDS011;21813;49.686;21.766;2023-03-01T07:47:18;112.60;;;59.05;;
35225;SDS011;21813;49.686;21.766;2023-03-01T07:49:44;116.93;;;60.65;;
35225;SDS011;21813;49.686;21.766;2023-03-01T07:52:10;102.53;;;55.28;;
35225;SDS011;21813;49.686;21.766;2023-03-01T07:54:38;107.70;;;55.80;;
35225;SDS011;21813;49.686;21.766;2023-03-01T07:57:04;109.30;;;57.35;;
35225;SDS011;21813;49.686;21.766;2023-03-01T07:59:30;122.15;;;60.53;;
35225;SDS011;21813;49.686;21.766;2023-03-01T08:01:56;115.05;;;59.03;;
35225;SDS011;21813;49.686;21.766;2023-03-01T08:04:23;111.57;;;58.38;;
35225;SDS011;21813;49.686;21.766;2023-03-01T08:06:50;112.28;;;61.92;;
35225;SDS011;21813;49.686;21.766;2023-03-01T08:09:17;114.30;;;60.13;;
35225;SDS011;21813;49.686;21.766;2023-03-01T08:11:43;102.60;;;58.08;;
35225;SDS011;21813;49.686;21.766;2023-03-01T08:14:09;107.97;;;58.80;;
35225;SDS011;21813;49.686;21.766;2023-03-01T08:16:38;103.63;;;57.80;;
35225;SDS011;21813;49.686;21.766;2023-03-01T08:19:06;112.15;;;61.80;;
35225;SDS011;21813;49.686;21.766;2023-03-01T08:21:33;110.80;;;62.85;;
35225;SDS011;21813;49.686;21.766;2023-03-01T08:24:05;107.57;;;62.90;;
35225;SDS011;21813;49.686;21.766;2023-03-01T08:26:32;123.03;;;65.30;;
35225;SDS011;21813;49.686;21.766;2023-03-01T08:29:01;128.25;;;63.47;;
35225;SDS011;21813;49.686;21.766;2023-03-01T08:31:34;117.43;;;61.13;;
35225;SDS011;21813;49.686;21.766;2023-03-01T08:34:03;121.93;;;63.15;;
35225;SDS011;21813;49.686;21.766;2023-03-01T08:36:32;113.30;;;59.70;;
35225;SDS011;21813;49.686;21.766;2023-03-01T08:39:01;86.30;;;44.40;;
35225;SDS011;21813;49.686;21.766;2023-03-01T08:41:27;114.45;;;57.05;;
35225;SDS011;21813;49.686;21.766;2023-03-01T08:43:54;111.03;;;54.38;;
35225;SDS011;21813;49.686;21.766;2023-03-01T08:46:27;109.43;;;53.70;;
35225;SDS011;21813;49.686;21.766;2023-03-01T08:48:54;89.85;;;46.53;;
35225;SDS011;21813;49.686;21.766;2023-03-01T08:51:38;117.03;;;59.33;;
35225;SDS011;21813;49.686;21.766;2023-03-01T08:54:05;117.57;;;59.75;;
35225;SDS011;21813;49.686;21.766;2023-03-01T08:56:32;107.57;;;54.08;;
35225;SDS011;21813;49.686;21.766;2023-03-01T08:58:58;112.72;;;53.63;;
35225;SDS011;21813;49.686;21.766;2023-03-01T09:01:25;106.45;;;52.45;;
35225;SDS011;21813;49.686;21.766;2023-03-01T09:03:51;114.10;;;55.00;;
35225;SDS011;21813;49.686;21.766;2023-03-01T09:06:16;99.50;;;52.10;;
35225;SDS011;21813;49.686;21.766;2023-03-01T09:08:44;89.05;;;47.55;;
35225;SDS011;21813;49.686;21.766;2023-03-01T09:11:12;86.85;;;44.83;;
35225;SDS011;21813;49.686;21.766;2023-03-01T09:13:41;73.85;;;38.63;;
35225;SDS011;21813;49.686;21.766;2023-03-01T09:16:08;71.88;;;34.95;;
35225;SDS011;21813;49.686;21.766;2023-03-01T09:18:36;72.80;;;36.08;;
35225;SDS011;21813;49.686;21.766;2023-03-01T09:21:02;77.78;;;41.45;;
35225;SDS011;21813;49.686;21.766;2023-03-01T09:23:33;86.40;;;43.70;;
35225;SDS011;21813;49.686;21.766;2023-03-01T09:25:59;91.30;;;44.58;;
35225;SDS011;21813;49.686;21.766;2023-03-01T09:28:26;85.68;;;42.40;;
35225;SDS011;21813;49.686;21.766;2023-03-01T09:30:51;84.15;;;42.15;;
35225;SDS011;21813;49.686;21.766;2023-03-01T09:33:17;78.95;;;39.42;;
35225;SDS011;21813;49.686;21.766;2023-03-01T09:35:42;79.35;;;39.95;;
35225;SDS011;21813;49.686;21.766;2023-03-01T09:38:13;83.23;;;41.30;;
35225;SDS011;21813;49.686;21.766;2023-03-01T09:40:43;64.22;;;32.33;;
35225;SDS011;21813;49.686;21.766;2023-03-01T09:45:49;61.17;;;28.25;;
35225;SDS011;21813;49.686;21.766;2023-03-01T09:48:19;54.42;;;28.88;;
35225;SDS011;21813;49.686;21.766;2023-03-01T09:50:48;58.08;;;30.25;;
35225;SDS011;21813;49.686;21.766;2023-03-01T09:53:16;52.83;;;28.88;;
35225;SDS011;21813;49.686;21.766;2023-03-01T10:10:06;56.80;;;29.88;;
35225;SDS011;21813;49.686;21.766;2023-03-01T10:12:37;59.55;;;30.55;;
35225;SDS011;21813;49.686;21.766;2023-03-01T10:15:09;62.15;;;31.58;;
35225;SDS011;21813;49.686;21.766;2023-03-01T10:18:00;62.58;;;30.80;;
35225;SDS011;21813;49.686;21.766;2023-03-01T10:23:16;55.95;;;29.20;;
35225;SDS011;21813;49.686;21.766;2023-03-01T10:25:44;54.17;;;28.48;;
35225;SDS011;21813;49.686;21.766;2023-03-01T10:30:50;51.05;;;27.55;;
35225;SDS011;21813;49.686;21.766;2023-03-01T10:35:57;55.92;;;27.58;;
35225;SDS011;21813;49.686;21.766;2023-03-01T10:38:22;51.00;;;26.27;;
35225;SDS011;21813;49.686;21.766;2023-03-01T10:40:53;50.72;;;26.17;;
35225;SDS011;21813;49.686;21.766;2023-03-01T10:43:22;47.45;;;24.63;;
35225;SDS011;21813;49.686;21.766;2023-03-01T10:45:56;49.75;;;24.73;;
35225;SDS011;21813;49.686;21.766;2023-03-01T10:48:23;46.88;;;25.70;;
35225;SDS011;21813;49.686;21.766;2023-03-01T10:53:27;45.88;;;23.90;;
35225;SDS011;21813;49.686;21.766;2023-03-01T10:56:22;46.13;;;23.92;;
35225;SDS011;21813;49.686;21.766;2023-03-01T10:59:01;44.75;;;23.00;;
35225;SDS011;21813;49.686;21.766;2023-03-01T11:01:32;44.10;;;22.85;;
35225;SDS011;21813;49.686;21.766;2023-03-01T11:06:37;40.75;;;22.00;;
35225;SDS011;21813;49.686;21.766;2023-03-01T11:09:20;36.53;;;21.13;;
35225;SDS011;21813;49.686;21.766;2023-03-01T11:11:54;39.83;;;22.33;;
35225;SDS011;21813;49.686;21.766;2023-03-01T11:14:22;39.25;;;21.73;;
35225;SDS011;21813;49.686;21.766;2023-03-01T11:20:15;36.13;;;20.60;;
35225;SDS011;21813;49.686;21.766;2023-03-01T11:22:53;34.15;;;19.48;;
35225;SDS011;21813;49.686;21.766;2023-03-01T11:25:23;32.85;;;18.50;;
35225;SDS011;21813;49.686;21.766;2023-03-01T11:27:53;32.35;;;19.00;;
35225;SDS011;21813;49.686;21.766;2023-03-01T11:30:21;37.10;;;19.48;;
35225;SDS011;21813;49.686;21.766;2023-03-01T11:35:49;36.25;;;19.17;;
35225;SDS011;21813;49.686;21.766;2023-03-01T11:38:22;35.25;;;19.48;;
35225;SDS011;21813;49.686;21.766;2023-03-01T11:43:41;34.35;;;19.05;;
35225;SDS011;21813;49.686;21.766;2023-03-01T11:49:05;34.45;;;17.73;;
35225;SDS011;21813;49.686;21.766;2023-03-01T11:58:26;31.27;;;17.30;;
35225;SDS011;21813;49.686;21.766;2023-03-01T12:11:55;32.03;;;17.80;;
35225;SDS011;21813;49.686;21.766;2023-03-01T12:14:51;28.13;;;16.00;;
35225;SDS011;21813;49.686;21.766;2023-03-01T12:23:15;27.48;;;16.27;;
35225;SDS011;21813;49.686;21.766;2023-03-01T12:28:41;30.33;;;16.92;;
35225;SDS011;21813;49.686;21.766;2023-03-01T12:34:13;33.03;;;17.80;;
35225;SDS011;21813;49.686;21.766;2023-03-01T12:36:52;32.15;;;17.73;;
35225;SDS011;21813;49.686;21.766;2023-03-01T12:39:26;27.85;;;16.42;;
35225;SDS011;21813;49.686;21.766;2023-03-01T12:50:31;32.75;;;16.80;;
35225;SDS011;21813;49.686;21.766;2023-03-01T12:53:07;29.92;;;15.23;;
35225;SDS011;21813;49.686;21.766;2023-03-01T12:55:47;29.55;;;16.85;;
35225;SDS011;21813;49.686;21.766;2023-03-01T13:06:09;28.23;;;15.18;;
35225;SDS011;21813;49.686;21.766;2023-03-01T13:08:44;27.33;;;16.13;;
35225;SDS011;21813;49.686;21.766;2023-03-01T13:11:32;30.85;;;16.45;;
35225;SDS011;21813;49.686;21.766;2023-03-01T13:16:49;29.25;;;16.33;;
35225;SDS011;21813;49.686;21.766;2023-03-01T13:19:17;27.77;;;15.10;;
35225;SDS011;21813;49.686;21.766;2023-03-01T13:21:46;27.95;;;14.02;;
35225;SDS011;21813;49.686;21.766;2023-03-01T13:29:50;26.08;;;15.55;;
35225;SDS011;21813;49.686;21.766;2023-03-01T13:32:25;30.63;;;17.05;;
35225;SDS011;21813;49.686;21.766;2023-03-01T13:37:45;27.08;;;15.15;;
35225;SDS011;21813;49.686;21.766;2023-03-01T13:43:26;25.52;;;14.60;;
35225;SDS011;21813;49.686;21.766;2023-03-01T13:45:58;22.92;;;12.77;;
35225;SDS011;21813;49.686;21.766;2023-03-01T13:48:35;26.35;;;14.82;;
35225;SDS011;21813;49.686;21.766;2023-03-01T13:51:15;24.80;;;14.10;;
35225;SDS011;21813;49.686;21.766;2023-03-01T13:53:44;26.60;;;14.93;;
35225;SDS011;21813;49.686;21.766;2023-03-01T14:05:09;25.73;;;12.82;;
35225;SDS011;21813;49.686;21.766;2023-03-01T14:07:38;21.02;;;13.02;;
35225;SDS011;21813;49.686;21.766;2023-03-01T14:10:06;23.33;;;13.63;;
35225;SDS011;21813;49.686;21.766;2023-03-01T14:13:17;22.40;;;12.07;;
35225;SDS011;21813;49.686;21.766;2023-03-01T14:20:38;22.17;;;11.98;;
35225;SDS011;21813;49.686;21.766;2023-03-01T14:23:15;25.17;;;11.10;;
35225;SDS011;21813;49.686;21.766;2023-03-01T14:25:49;20.70;;;11.10;;
35225;SDS011;21813;49.686;21.766;2023-03-01T14:28:18;21.83;;;10.38;;
35225;SDS011;21813;49.686;21.766;2023-03-01T14:30:49;23.23;;;11.15;;
35225;SDS011;21813;49.686;21.766;2023-03-01T14:33:18;19.75;;;11.82;;
35225;SDS011;21813;49.686;21.766;2023-03-01T14:38:34;22.60;;;11.32;;
35225;SDS011;21813;49.686;21.766;2023-03-01T14:41:05;21.77;;;12.07;;
35225;SDS011;21813;49.686;21.766;2023-03-01T14:43:37;25.90;;;12.70;;
35225;SDS011;21813;49.686;21.766;2023-03-01T14:46:15;26.67;;;15.23;;
35225;SDS011;21813;49.686;21.766;2023-03-01T14:48:54;23.35;;;13.10;;
35225;SDS011;21813;49.686;21.766;2023-03-01T14:51:23;30.90;;;14.60;;
35225;SDS011;21813;49.686;21.766;2023-03-01T14:53:51;29.02;;;14.95;;
35225;SDS011;21813;49.686;21.766;2023-03-01T14:56:17;25.60;;;13.73;;
35225;SDS011;21813;49.686;21.766;2023-03-01T14:58:46;28.45;;;16.08;;
35225;SDS011;21813;49.686;21.766;2023-03-01T15:01:16;26.00;;;15.10;;
35225;SDS011;21813;49.686;21.766;2023-03-01T15:03:48;33.03;;;15.88;;
35225;SDS011;21813;49.686;21.766;2023-03-01T15:06:17;30.58;;;15.23;;
35225;SDS011;21813;49.686;21.766;2023-03-01T15:08:48;30.63;;;15.38;;
35225;SDS011;21813;49.686;21.766;2023-03-01T15:11:21;29.80;;;13.73;;
35225;SDS011;21813;49.686;21.766;2023-03-01T15:13:51;26.20;;;14.65;;
35225;SDS011;21813;49.686;21.766;2023-03-01T15:16:24;27.08;;;13.82;;
35225;SDS011;21813;49.686;21.766;2023-03-01T15:18:55;25.45;;;13.38;;
35225;SDS011;21813;49.686;21.766;2023-03-01T15:21:27;27.90;;;14.48;;
35225;SDS011;21813;49.686;21.766;2023-03-01T15:26:31;29.30;;;15.43;;
35225;SDS011;21813;49.686;21.766;2023-03-01T15:29:15;29.52;;;15.23;;
35225;SDS011;21813;49.686;21.766;2023-03-01T15:31:43;31.00;;;16.98;;
35225;SDS011;21813;49.686;21.766;2023-03-01T15:34:30;32.85;;;17.52;;
35225;SDS011;21813;49.686;21.766;2023-03-01T15:36:59;36.42;;;17.52;;
35225;SDS011;21813;49.686;21.766;2023-03-01T15:39:31;35.25;;;18.73;;
35225;SDS011;21813;49.686;21.766;2023-03-01T15:42:36;44.33;;;20.00;;
35225;SDS011;21813;49.686;21.766;2023-03-01T15:45:06;35.70;;;18.63;;
35225;SDS011;21813;49.686;21.766;2023-03-01T15:48:04;39.40;;;20.25;;
35225;SDS011;21813;49.686;21.766;2023-03-01T15:50:44;40.67;;;21.40;;
35225;SDS011;21813;49.686;21.766;2023-03-01T15:53:20;44.97;;;23.55;;
35225;SDS011;21813;49.686;21.766;2023-03-01T15:55:47;44.65;;;23.67;;
35225;SDS011;21813;49.686;21.766;2023-03-01T15:58:18;50.47;;;23.60;;
35225;SDS011;21813;49.686;21.766;2023-03-01T16:00:47;46.03;;;22.17;;
35225;SDS011;21813;49.686;21.766;2023-03-01T16:03:16;52.47;;;24.48;;
35225;SDS011;21813;49.686;21.766;2023-03-01T16:05:49;48.53;;;23.50;;
35225;SDS011;21813;49.686;21.766;2023-03-01T16:08:16;43.92;;;24.52;;
35225;SDS011;21813;49.686;21.766;2023-03-01T16:10:42;50.78;;;24.45;;
35225;SDS011;21813;49.686;21.766;2023-03-01T16:13:09;49.75;;;23.27;;
35225;SDS011;21813;49.686;21.766;2023-03-01T16:15:37;44.58;;;23.13;;
35225;SDS011;21813;49.686;21.766;2023-03-01T16:18:04;45.35;;;24.13;;
35225;SDS011;21813;49.686;21.766;2023-03-01T16:20:36;46.15;;;24.02;;
35225;SDS011;21813;49.686;21.766;2023-03-01T16:23:02;50.15;;;25.20;;
35225;SDS011;21813;49.686;21.766;2023-03-01T16:25:31;53.78;;;25.20;;
35225;SDS011;21813;49.686;21.766;2023-03-01T16:27:57;56.92;;;25.55;;
35225;SDS011;21813;49.686;21.766;2023-03-01T16:30:27;58.50;;;24.05;;
35225;SDS011;21813;49.686;21.766;2023-03-01T16:32:53;42.47;;;24.25;;
35225;SDS011;21813;49.686;21.766;2023-03-01T16:35:20;49.78;;;25.73;;
35225;SDS011;21813;49.686;21.766;2023-03-01T16:37:54;50.83;;;27.45;;
35225;SDS011;21813;49.686;21.766;2023-03-01T16:40:25;53.15;;;26.80;;
35225;SDS011;21813;49.686;21.766;2023-03-01T16:42:53;52.38;;;26.10;;
35225;SDS011;21813;49.686;21.766;2023-03-01T16:45:22;59.47;;;28.15;;
35225;SDS011;21813;49.686;21.766;2023-03-01T16:47:47;57.78;;;29.50;;
35225;SDS011;21813;49.686;21.766;2023-03-01T16:50:13;68.13;;;33.38;;
35225;SDS011;21813;49.686;21.766;2023-03-01T16:52:39;70.00;;;34.63;;
35225;SDS011;21813;49.686;21.766;2023-03-01T16:55:06;69.50;;;35.80;;
35225;SDS011;21813;49.686;21.766;2023-03-01T16:57:35;73.85;;;36.10;;
35225;SDS011;21813;49.686;21.766;2023-03-01T17:00:03;78.63;;;37.95;;
35225;SDS011;21813;49.686;21.766;2023-03-01T17:02:34;68.93;;;36.88;;
35225;SDS011;21813;49.686;21.766;2023-03-01T17:05:02;85.10;;;42.03;;
35225;SDS011;21813;49.686;21.766;2023-03-01T17:07:28;145.27;;;67.82;;
35225;SDS011;21813;49.686;21.766;2023-03-01T17:10:00;112.32;;;50.58;;
35225;SDS011;21813;49.686;21.766;2023-03-01T17:12:27;89.75;;;42.65;;
35225;SDS011;21813;49.686;21.766;2023-03-01T17:14:55;93.10;;;44.72;;
35225;SDS011;21813;49.686;21.766;2023-03-01T17:17:21;87.18;;;46.15;;
35225;SDS011;21813;49.686;21.766;2023-03-01T17:22:46;123.25;;;56.45;;
35225;SDS011;21813;49.686;21.766;2023-03-01T17:25:23;138.10;;;60.72;;